Dilley, Texas
Current Conditions -  °F | °C
As of 11:53 AM on Thursday 29 Jan 2015 (Local Time) from KCOT Reporting Station
Clear Clear  
Wind Chill: 73°   Ceiling: Unl
Heat Index: 73°   Visibility: 10mi
Dew Point: 58°   Wind: 6mph
Humidity: 59%   Direction: 140°SE
Pressure: 30.2"   Gusts: NA
Location:  28.67°N, 99.17°W
Report Text: KCOT 291753Z AUTO 14005KT 10SM CLR 23/14 A3020 RMK AO2 SLP222 T02280144 10228 20128 58004
Loading
Personal Weather Stations






























Interactive Weather Map New forecast layout! Learn more

10-Day Weather Forecast

Advertisements
Track Severe Weather on mobile